Time;durP1;ratioP1;P1;durP2;ratioP2;P2;SDS_P1;SDS_P2;PMS_P1;PMS_P2;Temp;Humidity;BMP_temperature;BMP_pressure;BME280_temperature;BME280_humidity;BME280_pressure;Samples;Min_cycle;Max_cycle;Signal;HPM_P1;HPM_P2
2023/07/18 00:00:38;;;;;;;11.80;4.55;;;14.40;99.90;;;;;;5071459;28;20131;-58
2023/07/18 00:03:05;;;;;;;9.05;4.20;;;14.40;99.90;;;;;;5071644;28;20407;-58
2023/07/18 00:05:35;;;;;;;12.00;4.20;;;14.40;99.90;;;;;;5071764;28;20041;-58
2023/07/18 00:08:01;;;;;;;13.23;4.15;;;14.40;99.90;;;;;;5061433;28;20047;-59
2023/07/18 00:10:27;;;;;;;11.20;4.13;;;14.30;99.90;;;;;;5055771;28;20120;-59
2023/07/18 00:12:52;;;;;;;8.65;4.47;;;14.30;99.90;;;;;;5058892;28;20036;-58
2023/07/18 00:15:18;;;;;;;12.75;4.57;;;14.40;99.90;;;;;;5071938;28;20047;-58
2023/07/18 00:17:44;;;;;;;11.55;4.50;;;14.30;99.90;;;;;;5062843;28;20044;-59
2023/07/18 00:20:14;;;;;;;11.43;4.28;;;14.30;99.90;;;;;;5075494;28;20087;-58
2023/07/18 00:22:40;;;;;;;14.00;4.70;;;14.30;99.90;;;;;;5075137;28;20047;-58
2023/07/18 00:25:10;;;;;;;10.20;3.88;;;14.30;99.90;;;;;;5069017;28;20037;-59
2023/07/18 00:27:38;;;;;;;12.27;4.80;;;14.30;99.90;;;;;;5067508;28;20486;-59
2023/07/18 00:30:06;;;;;;;14.00;4.63;;;14.30;99.90;;;;;;5074899;28;20552;-59
2023/07/18 00:32:32;;;;;;;9.30;4.22;;;14.20;99.90;;;;;;5075040;28;20055;-59
2023/07/18 00:34:57;;;;;;;10.25;4.30;;;14.20;99.90;;;;;;5074877;28;20032;-58
2023/07/18 00:37:23;;;;;;;10.38;4.43;;;14.20;99.90;;;;;;5074986;28;20036;-59
2023/07/18 00:39:49;;;;;;;13.13;5.00;;;14.20;99.90;;;;;;5074829;28;20041;-59
2023/07/18 00:42:15;;;;;;;15.82;5.07;;;14.20;99.90;;;;;;5068076;28;20098;-58
2023/07/18 00:44:40;;;;;;;12.80;4.47;;;14.20;99.90;;;;;;5067661;28;20064;-59
2023/07/18 00:47:07;;;;;;;12.50;3.90;;;14.20;99.90;;;;;;5074885;28;20043;-58
2023/07/18 00:49:35;;;;;;;11.77;4.63;;;14.20;99.90;;;;;;5074938;28;20085;-58
2023/07/18 00:52:01;;;;;;;9.02;3.92;;;14.20;99.90;;;;;;5074932;28;20036;-58
2023/07/18 00:54:27;;;;;;;12.43;4.53;;;14.10;99.90;;;;;;5074788;28;20036;-59
2023/07/18 00:56:54;;;;;;;12.23;4.25;;;14.20;99.90;;;;;;5074383;28;20090;-58
2023/07/18 00:59:21;;;;;;;12.82;4.72;;;14.20;99.90;;;;;;5074739;28;20036;-59
2023/07/18 01:01:47;;;;;;;8.27;3.88;;;14.20;99.90;;;;;;5074410;28;20060;-58
2023/07/18 01:04:13;;;;;;;10.30;4.03;;;14.20;99.90;;;;;;5074472;28;20401;-59
2023/07/18 01:06:39;;;;;;;11.90;4.57;;;14.20;99.90;;;;;;5074250;28;20044;-58
2023/07/18 01:09:06;;;;;;;13.73;5.03;;;14.20;99.90;;;;;;5074401;28;20086;-59
2023/07/18 01:11:33;;;;;;;11.50;4.55;;;14.10;99.90;;;;;;5074047;28;20036;-58
2023/07/18 01:13:58;;;;;;;10.77;4.55;;;14.10;99.90;;;;;;5074477;28;20043;-58
2023/07/18 01:16:24;;;;;;;13.25;4.90;;;14.10;99.90;;;;;;5067428;28;20037;-58
2023/07/18 01:18:50;;;;;;;13.30;4.65;;;14.00;99.90;;;;;;5066786;28;20108;-58
2023/07/18 01:21:19;;;;;;;11.57;4.50;;;14.00;99.90;;;;;;5073947;28;20460;-58
2023/07/18 01:23:45;;;;;;;13.25;4.80;;;14.00;99.90;;;;;;5074094;28;20032;-59
2023/07/18 01:26:14;;;;;;;10.57;4.75;;;14.00;99.90;;;;;;5074064;28;20055;-58
2023/07/18 01:28:40;;;;;;;;;;;14.00;99.90;;;;;;5074524;28;20086;-58
2023/07/18 01:31:06;;;;;;;10.65;4.63;;;14.00;99.90;;;;;;5073848;28;20317;-58
2023/07/18 01:33:33;;;;;;;10.98;4.40;;;14.00;99.90;;;;;;5073903;28;20032;-58
2023/07/18 01:35:59;;;;;;;13.15;5.63;;;14.00;99.90;;;;;;5073855;28;20045;-58
2023/07/18 01:38:31;;;;;;;7.93;4.13;;;14.10;99.90;;;;;;5059914;28;20040;-58
2023/07/18 01:41:00;;;;;;;10.45;5.18;;;14.00;99.90;;;;;;5073860;28;20036;-58
2023/07/18 01:43:26;;;;;;;9.68;4.65;;;14.00;99.90;;;;;;5073595;28;20039;-58
2023/07/18 01:45:51;;;;;;;11.32;4.13;;;14.00;99.90;;;;;;5072486;28;20052;-58
2023/07/18 01:48:18;;;;;;;11.13;4.68;;;14.00;99.90;;;;;;5073280;28;20047;-58
2023/07/18 01:50:43;;;;;;;9.80;5.18;;;14.00;99.90;;;;;;5073427;28;20058;-58
2023/07/18 01:53:11;;;;;;;12.45;5.10;;;14.00;99.90;;;;;;5073293;28;20033;-58
2023/07/18 01:55:40;;;;;;;10.32;4.72;;;14.00;99.90;;;;;;5073540;28;20483;-58
2023/07/18 01:58:06;;;;;;;10.07;5.00;;;14.00;99.90;;;;;;5073466;28;20072;-58
2023/07/18 02:00:32;;;;;;;15.02;4.95;;;13.90;99.90;;;;;;5073263;28;20083;-58
2023/07/18 02:02:58;;;;;;;12.55;5.47;;;13.90;99.90;;;;;;5073425;28;20040;-58
2023/07/18 02:05:25;;;;;;;14.90;5.40;;;14.00;99.90;;;;;;5071841;28;20494;-58
2023/07/18 02:07:51;;;;;;;12.65;4.70;;;14.00;99.90;;;;;;5073407;28;20048;-58
2023/07/18 02:10:21;;;;;;;9.30;4.75;;;13.90;99.90;;;;;;5073343;28;20086;-58
2023/07/18 02:12:47;;;;;;;13.07;5.45;;;13.80;99.90;;;;;;5073345;28;20031;-58
2023/07/18 02:15:13;;;;;;;11.82;4.28;;;13.90;99.90;;;;;;5072963;28;20040;-58
2023/07/18 02:17:40;;;;;;;10.05;4.07;;;13.80;99.90;;;;;;5059063;28;20043;-58
2023/07/18 02:20:08;;;;;;;15.23;4.63;;;13.90;99.90;;;;;;5073028;28;20051;-58
2023/07/18 02:22:34;;;;;;;13.00;4.97;;;13.80;99.90;;;;;;5072989;28;20420;-58
2023/07/18 02:25:00;;;;;;;11.57;5.18;;;13.90;99.90;;;;;;5073050;28;20075;-58
2023/07/18 02:27:26;;;;;;;15.30;5.35;;;13.80;99.90;;;;;;5072805;28;20119;-58
2023/07/18 02:29:52;;;;;;;16.08;5.13;;;13.80;99.90;;;;;;5071954;28;20112;-58
2023/07/18 02:32:17;;;;;;;13.43;4.53;;;13.80;99.90;;;;;;5072878;28;20052;-58
2023/07/18 02:34:44;;;;;;;11.75;4.50;;;13.80;99.90;;;;;;5072438;28;20032;-58
2023/07/18 02:37:10;;;;;;;10.18;4.13;;;13.80;99.90;;;;;;5072916;28;20036;-58
2023/07/18 02:39:38;;;;;;;15.02;5.18;;;13.70;99.90;;;;;;5072499;28;20479;-58
2023/07/18 02:42:05;;;;;;;13.10;4.50;;;13.70;99.90;;;;;;5072755;28;20107;-58
2023/07/18 02:44:30;;;;;;;12.18;4.82;;;13.70;99.90;;;;;;5072328;28;20045;-58
2023/07/18 02:46:56;;;;;;;14.27;4.75;;;13.70;99.90;;;;;;5072338;28;20166;-58
2023/07/18 02:49:22;;;;;;;12.73;4.95;;;13.70;99.90;;;;;;5072317;28;20059;-58
2023/07/18 02:51:47;;;;;;;16.38;4.50;;;13.70;99.90;;;;;;5072398;28;20054;-58
2023/07/18 02:54:13;;;;;;;8.40;4.00;;;13.70;99.90;;;;;;5071391;28;20449;-58
2023/07/18 02:56:39;;;;;;;10.75;4.70;;;13.70;99.90;;;;;;5072164;28;20043;-58
2023/07/18 02:59:04;;;;;;;16.80;5.22;;;13.70;99.90;;;;;;5072513;28;20105;-58
2023/07/18 03:01:30;;;;;;;12.50;4.75;;;13.60;99.90;;;;;;5072299;28;20114;-58
2023/07/18 03:03:56;;;;;;;13.20;4.88;;;13.70;99.90;;;;;;5072016;28;20047;-58
2023/07/18 03:06:23;;;;;;;8.57;4.78;;;13.60;99.90;;;;;;5072148;28;20036;-58
2023/07/18 03:08:50;;;;;;;16.27;5.25;;;13.60;99.90;;;;;;5071017;28;20441;-58
2023/07/18 03:11:18;;;;;;;10.65;4.60;;;13.60;99.90;;;;;;5072199;28;20036;-58
2023/07/18 03:13:43;;;;;;;9.73;4.63;;;13.60;99.90;;;;;;5071933;28;20074;-58
2023/07/18 03:16:09;;;;;;;7.82;4.07;;;13.60;99.90;;;;;;5067102;28;20072;-58
2023/07/18 03:18:35;;;;;;;12.52;4.35;;;13.60;99.90;;;;;;5062597;28;20452;-58
2023/07/18 03:21:00;;;;;;;11.00;4.65;;;13.50;99.90;;;;;;5072037;28;20044;-58
2023/07/18 03:23:26;;;;;;;9.23;4.63;;;13.60;99.90;;;;;;5071967;28;20036;-58
2023/07/18 03:25:52;;;;;;;10.45;4.63;;;13.60;99.90;;;;;;5071880;28;20040;-58
2023/07/18 03:28:17;;;;;;;11.48;4.72;;;13.70;99.90;;;;;;5071712;28;20529;-58
2023/07/18 03:30:43;;;;;;;11.60;5.10;;;13.70;99.90;;;;;;5070467;28;20521;-58
2023/07/18 03:33:09;;;;;;;10.80;4.97;;;13.60;99.90;;;;;;5071668;28;20379;-58
2023/07/18 03:35:35;;;;;;;11.35;5.10;;;13.60;99.90;;;;;;5071997;28;20055;-58
2023/07/18 03:38:01;;;;;;;11.52;4.80;;;13.60;99.90;;;;;;5071901;28;20048;-58
2023/07/18 03:40:27;;;;;;;13.95;5.50;;;13.60;99.90;;;;;;5071791;28;20040;-58
2023/07/18 03:42:52;;;;;;;15.23;5.50;;;13.60;99.90;;;;;;5071609;28;20032;-58
2023/07/18 03:45:18;;;;;;;11.40;5.20;;;13.70;99.90;;;;;;5071740;28;20484;-58
2023/07/18 03:47:44;;;;;;;15.05;5.25;;;13.60;99.90;;;;;;5071624;28;20040;-58
2023/07/18 03:50:11;;;;;;;13.18;4.85;;;13.60;99.90;;;;;;5071996;28;20044;-58
2023/07/18 03:52:37;;;;;;;10.18;4.80;;;13.60;99.90;;;;;;5071879;28;20194;-58
2023/07/18 03:55:04;;;;;;;13.43;4.78;;;13.70;99.90;;;;;;5071890;28;20090;-58
2023/07/18 03:57:34;;;;;;;10.15;4.28;;;13.60;99.90;;;;;;5071626;28;20044;-58
2023/07/18 03:59:59;;;;;;;13.60;5.60;;;13.60;99.90;;;;;;5071429;28;20072;-58
2023/07/18 04:02:26;;;;;;;17.48;4.57;;;13.70;99.90;;;;;;5071683;28;20096;-58
2023/07/18 04:04:52;;;;;;;12.60;5.03;;;13.70;99.90;;;;;;5071650;28;20049;-58
2023/07/18 04:07:20;;;;;;;11.00;4.47;;;13.70;99.90;;;;;;5071594;28;20040;-58
2023/07/18 04:09:45;;;;;;;11.45;4.88;;;13.70;99.90;;;;;;5071576;28;20039;-57
2023/07/18 04:12:13;;;;;;;19.92;5.07;;;13.70;99.90;;;;;;5071673;28;20424;-58
2023/07/18 04:14:41;;;;;;;13.43;5.00;;;13.80;99.90;;;;;;5071440;28;20072;-58
2023/07/18 04:17:07;;;;;;;14.10;4.93;;;13.70;99.90;;;;;;5059068;28;21021;-58
2023/07/18 04:19:32;;;;;;;11.23;5.18;;;13.70;99.90;;;;;;5069053;28;20047;-58
2023/07/18 04:21:58;;;;;;;14.75;6.30;;;13.80;99.90;;;;;;5071518;28;20111;-59
2023/07/18 04:24:24;;;;;;;14.23;5.03;;;13.80;99.90;;;;;;5053205;28;20402;-58
2023/07/18 04:26:50;;;;;;;15.15;5.22;;;13.80;99.90;;;;;;5071327;28;20044;-58
2023/07/18 04:29:16;;;;;;;13.70;5.50;;;13.70;99.90;;;;;;5071129;28;20072;-58
2023/07/18 04:31:42;;;;;;;14.30;5.25;;;13.80;99.90;;;;;;5070346;28;20033;-58
2023/07/18 04:34:07;;;;;;;11.85;5.22;;;13.80;99.90;;;;;;5071300;28;20098;-57
2023/07/18 04:36:33;;;;;;;9.23;4.55;;;13.90;99.90;;;;;;5071169;28;20390;-58
2023/07/18 04:38:59;;;;;;;18.42;5.43;;;14.00;99.90;;;;;;5071010;28;20403;-58
2023/07/18 04:41:24;;;;;;;12.02;5.30;;;14.00;99.90;;;;;;5070981;28;20033;-58
2023/07/18 04:43:50;;;;;;;13.18;4.63;;;14.00;99.90;;;;;;5071147;28;20032;-58
2023/07/18 04:46:16;;;;;;;20.48;4.95;;;14.10;99.90;;;;;;5071295;28;20071;-58
2023/07/18 04:48:41;;;;;;;11.63;5.30;;;14.10;99.90;;;;;;5070701;28;20487;-58
2023/07/18 04:51:07;;;;;;;22.20;5.57;;;14.20;99.90;;;;;;5071233;28;20037;-58
2023/07/18 04:53:33;;;;;;;18.23;5.40;;;14.20;99.90;;;;;;5072198;28;20094;-58
2023/07/18 04:56:00;;;;;;;18.70;6.07;;;14.10;99.90;;;;;;5074635;28;20043;-58
2023/07/18 04:58:27;;;;;;;16.77;5.10;;;14.20;99.90;;;;;;5074636;28;20811;-58
2023/07/18 05:00:54;;;;;;;12.55;4.95;;;14.20;99.90;;;;;;5074594;28;20048;-58
2023/07/18 05:03:21;;;;;;;16.40;5.45;;;14.20;99.90;;;;;;5074821;28;20049;-58
2023/07/18 05:05:47;;;;;;;15.07;4.82;;;14.30;99.90;;;;;;5074498;28;20490;-58
2023/07/18 05:08:12;;;;;;;16.88;5.07;;;14.30;99.90;;;;;;5074415;28;20044;-58
2023/07/18 05:10:39;;;;;;;13.10;5.28;;;14.30;99.90;;;;;;5074217;28;20029;-58
2023/07/18 05:13:05;;;;;;;14.20;5.60;;;14.30;99.90;;;;;;5074207;28;20044;-58
2023/07/18 05:15:30;;;;;;;19.52;5.22;;;14.40;99.90;;;;;;5074530;28;20447;-58
2023/07/18 05:17:56;;;;;;;17.67;5.82;;;14.40;99.90;;;;;;5060279;28;20032;-58
2023/07/18 05:20:21;;;;;;;15.52;5.47;;;14.50;99.90;;;;;;5074161;28;20052;-58
2023/07/18 05:22:47;;;;;;;14.10;5.03;;;14.50;99.90;;;;;;5072726;28;20040;-58
2023/07/18 05:25:14;;;;;;;14.57;5.47;;;14.60;99.90;;;;;;5074018;28;20046;-58
2023/07/18 05:27:41;;;;;;;14.00;5.20;;;14.70;99.90;;;;;;5073822;28;20102;-58
2023/07/18 05:30:20;;;;;;;20.52;5.90;;;14.80;99.90;;;;;;5074301;28;20048;-58
2023/07/18 05:32:46;;;;;;;16.50;5.40;;;14.80;99.90;;;;;;5073982;28;20036;-59
2023/07/18 05:35:14;;;;;;;14.98;5.50;;;14.80;99.90;;;;;;5073892;28;20345;-58
2023/07/18 05:37:40;;;;;;;17.42;5.43;;;14.90;99.90;;;;;;5073913;28;20049;-58
2023/07/18 05:40:10;;;;;;;11.80;5.22;;;14.90;99.90;;;;;;5073876;28;20033;-58
2023/07/18 05:42:40;;;;;;;17.20;5.65;;;15.00;99.90;;;;;;5074029;28;20070;-58
2023/07/18 05:45:07;;;;;;;15.00;6.40;;;15.00;99.90;;;;;;5073690;28;20444;-58
2023/07/18 05:47:34;;;;;;;14.20;5.50;;;15.00;99.90;;;;;;5067890;28;20490;-55
2023/07/18 05:50:00;;;;;;;12.52;5.43;;;15.10;99.90;;;;;;5060468;28;20063;-56
2023/07/18 05:52:26;;;;;;;16.02;6.18;;;15.00;99.90;;;;;;5057422;28;20041;-55
2023/07/18 05:54:52;;;;;;;18.15;5.88;;;15.10;99.90;;;;;;5053772;28;20043;-55
2023/07/18 05:57:17;;;;;;;15.00;5.60;;;15.20;99.90;;;;;;5053609;28;20041;-55
2023/07/18 05:59:43;;;;;;;15.95;5.78;;;15.20;99.90;;;;;;5053629;28;20044;-54
2023/07/18 06:02:09;;;;;;;12.27;5.38;;;15.20;99.90;;;;;;5057319;28;20510;-54
2023/07/18 06:04:36;;;;;;;15.80;6.15;;;15.20;99.90;;;;;;5072808;28;20079;-55
2023/07/18 06:07:02;;;;;;;15.82;5.85;;;15.40;99.90;;;;;;5073228;28;20044;-56
2023/07/18 06:09:28;;;;;;;19.52;5.93;;;15.60;99.90;;;;;;5073938;28;20323;-53
2023/07/18 06:11:54;;;;;;;16.77;6.13;;;15.80;99.90;;;;;;5073374;28;20094;-54
2023/07/18 06:14:19;;;;;;;21.10;6.00;;;16.20;99.90;;;;;;5073530;28;20033;-55
2023/07/18 06:16:46;;;;;;;13.30;6.32;;;16.40;99.90;;;;;;5063551;28;20048;-55
2023/07/18 06:19:12;;;;;;;21.38;6.30;;;16.60;99.90;;;;;;5073857;28;20127;-53
2023/07/18 06:21:38;;;;;;;10.38;5.45;;;16.90;99.90;;;;;;5072956;28;20483;-55
2023/07/18 06:24:05;;;;;;;20.25;5.85;;;17.00;99.90;;;;;;5072689;28;20158;-55
2023/07/18 06:26:30;;;;;;;15.77;5.70;;;17.30;99.90;;;;;;5072978;28;20029;-54
2023/07/18 06:28:56;;;;;;;11.32;5.07;;;17.40;99.90;;;;;;5071210;28;20098;-55
2023/07/18 06:31:22;;;;;;;15.20;5.90;;;17.70;99.90;;;;;;5073051;28;20043;-55
2023/07/18 06:33:48;;;;;;;14.20;5.38;;;17.80;99.90;;;;;;5072659;28;20471;-55
2023/07/18 06:36:15;;;;;;;19.48;5.95;;;17.90;99.90;;;;;;5072627;28;20054;-55
2023/07/18 06:38:41;;;;;;;23.30;6.55;;;18.10;99.90;;;;;;5072471;28;20112;-55
2023/07/18 06:41:07;;;;;;;19.50;6.03;;;18.10;99.90;;;;;;5073014;28;20078;-55
2023/07/18 06:43:32;;;;;;;25.30;6.68;;;18.20;99.90;;;;;;5072726;28;20431;-56
2023/07/18 06:45:58;;;;;;;23.35;7.25;;;18.20;99.90;;;;;;5072534;28;20036;-55
2023/07/18 06:48:24;;;;;;;20.17;6.15;;;18.10;99.90;;;;;;5072482;28;20113;-55
2023/07/18 06:50:52;;;;;;;17.10;5.80;;;18.20;99.90;;;;;;5072787;28;20117;-56
2023/07/18 06:53:20;;;;;;;20.90;6.22;;;18.20;99.90;;;;;;5071314;28;20071;-55
2023/07/18 06:55:49;;;;;;;15.98;6.28;;;18.10;99.90;;;;;;5072521;28;20036;-55
2023/07/18 06:58:19;;;;;;;22.38;6.90;;;18.10;99.90;;;;;;5072582;28;20087;-54
2023/07/18 07:00:45;;;;;;;15.50;6.45;;;18.20;99.90;;;;;;5072113;28;20458;-55
2023/07/18 07:03:13;;;;;;;14.88;5.93;;;18.30;99.90;;;;;;5071229;28;20080;-56
2023/07/18 07:05:41;;;;;;;18.60;5.72;;;18.30;99.90;;;;;;5072310;28;20048;-55
2023/07/18 07:08:10;;;;;;;16.52;6.10;;;18.50;99.90;;;;;;5072017;28;20480;-56
2023/07/18 07:10:40;;;;;;;17.98;6.18;;;18.70;99.90;;;;;;5071998;28;20037;-56
2023/07/18 07:13:06;;;;;;;19.00;5.78;;;18.70;99.90;;;;;;5072392;28;20040;-56
2023/07/18 07:15:33;;;;;;;19.15;6.38;;;18.90;99.90;;;;;;5071758;28;20067;-56
2023/07/18 07:17:59;;;;;;;21.50;5.75;;;19.20;99.90;;;;;;5062728;28;20040;-56
2023/07/18 07:20:25;;;;;;;17.50;5.65;;;19.30;99.90;;;;;;5072002;28;20040;-56
2023/07/18 07:22:54;;;;;;;17.60;5.55;;;19.50;99.90;;;;;;5071965;28;20044;-56
2023/07/18 07:25:20;;;;;;;18.35;6.18;;;19.80;99.90;;;;;;5071921;28;20499;-56
2023/07/18 07:27:46;;;;;;;22.30;6.60;;;19.70;99.90;;;;;;5071781;28;20040;-55
2023/07/18 07:30:16;;;;;;;17.08;5.43;;;19.80;99.90;;;;;;5071736;28;20044;-56
2023/07/18 07:32:52;;;;;;;23.65;6.30;;;19.90;99.90;;;;;;5071768;28;20043;-57
2023/07/18 07:35:19;;;;;;;13.25;5.32;;;20.00;99.90;;;;;;5071720;28;20029;-56
2023/07/18 07:37:46;;;;;;;18.48;5.40;;;20.00;99.90;;;;;;5071996;28;20045;-56
2023/07/18 07:40:12;;;;;;;15.23;4.65;;;20.10;99.90;;;;;;5071687;28;20400;-56
2023/07/18 07:42:39;;;;;;;20.30;6.18;;;20.10;99.90;;;;;;5071778;28;20044;-56
2023/07/18 07:45:06;;;;;;;26.98;7.20;;;20.10;99.90;;;;;;5070791;28;20048;-54
2023/07/18 07:47:31;;;;;;;18.63;5.97;;;20.40;99.90;;;;;;5071310;28;20509;-56
2023/07/18 07:49:57;;;;;;;13.95;6.40;;;20.70;99.90;;;;;;5072004;28;20029;-56
2023/07/18 07:52:23;;;;;;;17.00;5.97;;;20.60;99.90;;;;;;5071728;28;20437;-56
2023/07/18 07:54:48;;;;;;;17.15;5.22;;;20.80;99.90;;;;;;5072068;28;20439;-56
2023/07/18 07:57:14;;;;;;;23.67;6.30;;;20.90;99.90;;;;;;5071472;28;20378;-56
2023/07/18 07:59:40;;;;;;;18.52;5.70;;;21.10;99.90;;;;;;5071458;28;20040;-56
2023/07/18 08:02:06;;;;;;;20.58;5.57;;;21.20;99.90;;;;;;5071350;28;20052;-55
2023/07/18 08:04:33;;;;;;;19.40;5.18;;;21.20;99.90;;;;;;5071720;28;20040;-56
2023/07/18 08:06:59;;;;;;;16.48;4.78;;;21.50;99.90;;;;;;5071900;28;20548;-56
2023/07/18 08:09:24;;;;;;;19.45;3.97;;;21.60;99.90;;;;;;5071816;28;20037;-57
2023/07/18 08:11:50;;;;;;;17.02;4.10;;;21.70;99.90;;;;;;5057314;28;20037;-56
2023/07/18 08:14:17;;;;;;;13.10;3.97;;;21.60;99.90;;;;;;5051493;28;20068;-56
2023/07/18 08:16:43;;;;;;;14.38;3.97;;;21.90;99.90;;;;;;5051624;28;20426;-55
2023/07/18 08:19:09;;;;;;;11.10;3.35;;;22.10;99.90;;;;;;5066867;28;20079;-56
2023/07/18 08:21:34;;;;;;;12.27;3.50;;;22.10;99.90;;;;;;5071788;28;20376;-56
2023/07/18 08:24:00;;;;;;;14.80;3.78;;;22.00;99.90;;;;;;5071700;28;20043;-55
2023/07/18 08:26:26;;;;;;;10.40;3.85;;;21.90;99.90;;;;;;5071723;28;20040;-56
2023/07/18 08:28:52;;;;;;;13.00;3.40;;;22.10;99.90;;;;;;5073192;28;20050;-55
2023/07/18 08:31:19;;;;;;;12.38;3.80;;;22.60;99.90;;;;;;5075176;28;20467;-56
2023/07/18 08:33:45;;;;;;;12.05;3.63;;;22.90;99.90;;;;;;5075460;28;20037;-61
2023/07/18 08:36:10;;;;;;;10.82;3.17;;;23.00;99.90;;;;;;5075461;28;20070;-61
2023/07/18 08:38:36;;;;;;;11.05;3.20;;;24.60;99.90;;;;;;5075253;28;20066;-61
2023/07/18 08:41:02;;;;;;;12.02;3.50;;;25.30;99.90;;;;;;5075344;28;20100;-61
2023/07/18 08:43:27;;;;;;;11.23;2.92;;;25.60;99.90;;;;;;5075053;28;20215;-61
2023/07/18 08:45:55;;;;;;;10.35;2.92;;;25.50;99.90;;;;;;5075265;28;20051;-63
2023/07/18 08:48:21;;;;;;;6.18;2.22;;;25.30;99.90;;;;;;5069600;28;20048;-61
2023/07/18 08:50:47;;;;;;;8.93;2.72;;;26.40;99.90;;;;;;5061639;28;20120;-61
2023/07/18 08:53:13;;;;;;;8.32;2.42;;;26.30;99.90;;;;;;5054466;28;20154;-61
2023/07/18 08:55:39;;;;;;;7.18;2.22;;;26.50;99.90;;;;;;5053873;28;20149;-61
2023/07/18 08:58:05;;;;;;;7.88;2.90;;;26.30;99.90;;;;;;5073183;28;20512;-61
2023/07/18 09:00:31;;;;;;;10.20;1.88;;;25.90;99.90;;;;;;5074829;28;20074;-60
2023/07/18 09:02:56;;;;;;;6.20;1.75;;;26.20;99.90;;;;;;5074419;28;20518;-61
2023/07/18 09:05:34;;;;;;;5.90;1.55;;;25.70;99.90;;;;;;5074867;28;20062;-61
2023/07/18 09:08:01;;;;;;;6.50;2.28;;;25.40;99.90;;;;;;5074537;28;20475;-61
2023/07/18 09:10:27;;;;;;;9.38;2.25;;;25.10;99.90;;;;;;5074371;28;20037;-61
2023/07/18 09:12:59;;;;;;;7.22;2.17;;;25.10;99.90;;;;;;5074723;28;20178;-61
2023/07/18 09:15:24;;;;;;;8.43;2.47;;;25.20;99.90;;;;;;5074402;28;20033;-61
2023/07/18 09:17:55;;;;;;;9.20;2.63;;;25.50;99.90;;;;;;5060306;28;20039;-61
2023/07/18 09:20:22;;;;;;;9.10;1.80;;;25.80;99.90;;;;;;5074347;28;20040;-61
2023/07/18 09:22:47;;;;;;;8.55;2.05;;;25.80;99.90;;;;;;5074487;28;20029;-61
2023/07/18 09:25:14;;;;;;;7.82;2.03;;;25.60;99.90;;;;;;5072955;28;20056;-61
2023/07/18 09:27:40;;;;;;;7.95;1.90;;;25.20;99.90;;;;;;5073822;28;20044;-61
2023/07/18 09:30:07;;;;;;;6.22;1.80;;;25.40;99.90;;;;;;5074107;28;20044;-61
2023/07/18 09:32:33;;;;;;;8.05;2.33;;;26.00;99.90;;;;;;5074317;28;20039;-61
2023/07/18 09:34:59;;;;;;;6.35;2.13;;;25.50;99.90;;;;;;5072096;28;20036;-61
2023/07/18 09:37:26;;;;;;;8.68;2.20;;;25.40;99.90;;;;;;5073597;28;20102;-61
2023/07/18 09:39:52;;;;;;;8.80;1.85;;;26.80;99.90;;;;;;5073616;28;20040;-61
2023/07/18 09:42:19;;;;;;;5.30;1.70;;;27.40;99.90;;;;;;5074018;28;20032;-61
2023/07/18 09:44:49;;;;;;;8.35;1.73;;;28.00;99.90;;;;;;5073734;28;20478;-61
2023/07/18 09:47:16;;;;;;;7.50;1.70;;;28.00;99.90;;;;;;5073783;28;20047;-62
2023/07/18 09:49:43;;;;;;;5.55;1.67;;;27.10;99.90;;;;;;5073579;28;20382;-62
2023/07/18 09:52:10;;;;;;;8.27;2.25;;;26.30;99.90;;;;;;5073554;28;20403;-61
2023/07/18 09:54:36;;;;;;;6.05;1.88;;;25.90;99.90;;;;;;5073809;28;20068;-61
2023/07/18 09:57:09;;;;;;;5.68;2.10;;;25.50;99.90;;;;;;5073661;28;20044;-62
2023/07/18 09:59:39;;;;;;;9.18;2.13;;;25.20;99.90;;;;;;5073351;28;20525;-62
2023/07/18 10:02:06;;;;;;;7.75;2.25;;;25.50;99.90;;;;;;5073290;28;20161;-61
2023/07/18 10:04:35;;;;;;;7.30;2.17;;;25.80;99.90;;;;;;5073184;28;20047;-61
2023/07/18 10:07:02;;;;;;;7.18;1.80;;;26.90;99.90;;;;;;5073455;28;20087;-61
2023/07/18 10:09:28;;;;;;;10.05;2.25;;;27.60;99.90;;;;;;5073309;28;20462;-61
2023/07/18 10:12:03;;;;;;;6.93;2.03;;;27.80;99.90;;;;;;5073715;28;20032;-61
2023/07/18 10:14:41;;;;;;;8.18;2.05;;;27.70;99.90;;;;;;5073239;28;20040;-61
2023/07/18 10:17:07;;;;;;;6.10;2.17;;;27.70;99.90;;;;;;5062496;28;20127;-61
2023/07/18 10:19:46;;;;;;;7.47;2.42;;;26.90;99.90;;;;;;5073093;28;20123;-61
2023/07/18 10:22:23;;;;;;;11.70;2.25;;;26.30;99.90;;;;;;5073269;28;20052;-61
2023/07/18 10:24:49;;;;;;;6.13;1.90;;;25.90;99.90;;;;;;5072935;28;20037;-61
2023/07/18 10:27:15;;;;;;;12.52;2.70;;;25.20;99.90;;;;;;5072821;28;20097;-61
2023/07/18 10:29:41;;;;;;;21.17;3.85;;;24.80;99.90;;;;;;5073090;28;20029;-61
2023/07/18 10:32:11;;;;;;;9.73;2.38;;;24.10;99.90;;;;;;5072733;28;20513;-61
2023/07/18 10:34:41;;;;;;;8.00;2.03;;;24.00;99.90;;;;;;5072771;28;20044;-62
2023/07/18 10:37:07;;;;;;;8.63;2.22;;;23.70;99.90;;;;;;5073009;28;20048;-61
2023/07/18 10:39:38;;;;;;;8.23;2.10;;;23.40;99.90;;;;;;5072453;28;20115;-60
2023/07/18 10:42:21;;;;;;;11.57;2.58;;;23.30;99.90;;;;;;5072605;28;20041;-62
2023/07/18 10:44:48;;;;;;;5.43;2.00;;;23.10;99.90;;;;;;5072413;28;20142;-61
2023/07/18 10:47:18;;;;;;;7.18;1.80;;;23.00;99.90;;;;;;5072389;28;20040;-62
2023/07/18 10:49:47;;;;;;;6.63;2.17;;;23.10;99.90;;;;;;5072432;28;20036;-61
2023/07/18 10:52:14;;;;;;;6.85;2.20;;;23.20;99.90;;;;;;5071818;28;20042;-61
2023/07/18 10:54:48;;;;;;;12.75;2.30;;;23.20;99.90;;;;;;5072151;28;20046;-61
2023/07/18 10:57:15;;;;;;;7.22;2.05;;;23.40;99.90;;;;;;5072210;28;20036;-61
2023/07/18 10:59:44;;;;;;;6.13;1.92;;;24.10;99.90;;;;;;5072286;28;20048;-61
2023/07/18 11:02:11;;;;;;;8.38;2.17;;;24.70;99.90;;;;;;5071917;28;20064;-61
2023/07/18 11:04:37;;;;;;;6.90;2.05;;;24.90;99.90;;;;;;5072530;28;20055;-62
2023/07/18 11:07:03;;;;;;;9.60;2.72;;;25.70;99.90;;;;;;5072299;28;20040;-61
2023/07/18 11:09:28;;;;;;;4.95;1.77;;;25.90;99.90;;;;;;5070421;28;20044;-61
2023/07/18 11:11:54;;;;;;;5.50;1.58;;;26.30;99.90;;;;;;5070909;28;20044;-61
2023/07/18 11:14:20;;;;;;;5.20;1.63;;;26.10;99.90;;;;;;5072253;28;20482;-61
2023/07/18 11:16:46;;;;;;;5.80;1.75;;;27.00;99.90;;;;;;5062440;28;20449;-61
2023/07/18 11:19:13;;;;;;;9.77;1.80;;;26.10;99.90;;;;;;5068014;28;20040;-63
2023/07/18 11:21:39;;;;;;;7.00;1.88;;;25.80;99.90;;;;;;5072190;28;20048;-61
2023/07/18 11:24:05;;;;;;;7.40;1.40;;;26.40;99.90;;;;;;5072039;28;20162;-61
2023/07/18 11:26:31;;;;;;;7.32;2.00;;;27.10;99.90;;;;;;5072081;28;20119;-61
2023/07/18 11:28:57;;;;;;;5.10;1.30;;;27.30;99.90;;;;;;5071705;28;20167;-61
2023/07/18 11:31:27;;;;;;;7.90;1.60;;;26.80;99.90;;;;;;5072015;28;20036;-62
2023/07/18 11:33:55;;;;;;;7.28;1.45;;;27.20;99.90;;;;;;5072224;28;20032;-61
2023/07/18 11:36:41;;;;;;;5.93;1.75;;;26.80;99.90;;;;;;5071819;28;20048;-61
2023/07/18 11:39:19;;;;;;;5.75;1.63;;;26.70;99.90;;;;;;5086349;28;20514;-61
2023/07/18 11:41:45;;;;;;;8.13;1.52;;;26.30;99.90;;;;;;5071774;28;20118;-61
2023/07/18 11:44:11;;;;;;;9.55;1.98;;;26.40;99.90;;;;;;5071703;28;20518;-61
2023/07/18 11:46:42;;;;;;;9.90;2.25;;;26.50;99.90;;;;;;5071522;28;20040;-62
2023/07/18 11:49:12;;;;;;;8.20;1.80;;;26.90;99.90;;;;;;5084139;28;20501;-61
2023/07/18 11:51:40;;;;;;;10.30;1.92;;;27.00;99.90;;;;;;5072820;28;20059;-61
2023/07/18 11:54:06;;;;;;;4.30;1.50;;;27.30;99.90;;;;;;5071364;28;20038;-61
2023/07/18 11:56:34;;;;;;;8.57;1.83;;;27.20;99.90;;;;;;5071476;28;20040;-61
2023/07/18 11:59:00;;;;;;;;;;;27.30;99.90;;;;;;5072258;28;20040;-62
2023/07/18 12:01:25;;;;;;;9.73;1.83;;;27.20;99.90;;;;;;5071183;28;20362;-61
2023/07/18 12:03:52;;;;;;;6.13;1.70;;;27.30;99.90;;;;;;5073570;28;20135;-61
2023/07/18 12:06:21;;;;;;;5.32;1.80;;;27.40;99.90;;;;;;5075632;28;20033;-62
2023/07/18 12:08:49;;;;;;;7.68;1.70;;;27.40;99.90;;;;;;5075393;28;20479;-61
2023/07/18 12:11:15;;;;;;;9.57;1.90;;;27.50;99.90;;;;;;5075690;28;20040;-61
2023/07/18 12:13:41;;;;;;;8.20;1.52;;;27.50;99.90;;;;;;5074525;28;20116;-61
2023/07/18 12:16:07;;;;;;;9.05;2.20;;;26.90;99.90;;;;;;5070857;28;20112;-61
2023/07/18 12:18:33;;;;;;;4.28;1.73;;;26.60;99.90;;;;;;5064507;28;20455;-61
2023/07/18 12:20:59;;;;;;;7.78;1.80;;;26.40;99.90;;;;;;5075389;28;20044;-61
2023/07/18 12:23:25;;;;;;;6.72;1.75;;;26.50;99.90;;;;;;5073531;28;20048;-61
2023/07/18 12:25:51;;;;;;;4.47;1.67;;;26.50;99.90;;;;;;5075125;28;20119;-61
2023/07/18 12:28:17;;;;;;;8.48;1.73;;;26.60;99.90;;;;;;5075237;28;20080;-61
2023/07/18 12:30:43;;;;;;;4.05;1.10;;;26.40;99.90;;;;;;5074999;28;20079;-61
2023/07/18 12:33:08;;;;;;;8.18;1.48;;;26.90;99.90;;;;;;5075119;28;20035;-61
2023/07/18 12:35:34;;;;;;;5.95;1.38;;;27.20;99.90;;;;;;5074972;28;20459;-61
2023/07/18 12:38:01;;;;;;;4.82;1.33;;;27.40;99.90;;;;;;5074986;28;20483;-61